sensor_id;sensor_type;location;lat;lon;timestamp;pressure;altitude;pressure_sealevel;temperature
65569;BMP180;52211;50.154;8.682;2023-02-28T00:01:36;101138.00;;;6.90
65569;BMP180;52211;50.154;8.682;2023-02-28T00:04:06;101138.00;;;6.90
65569;BMP180;52211;50.154;8.682;2023-02-28T00:06:37;101145.00;;;6.80
65569;BMP180;52211;50.154;8.682;2023-02-28T00:09:09;101142.00;;;6.80
65569;BMP180;52211;50.154;8.682;2023-02-28T00:11:41;101137.00;;;6.80
65569;BMP180;52211;50.154;8.682;2023-02-28T00:14:10;101144.00;;;6.70
65569;BMP180;52211;50.154;8.682;2023-02-28T00:16:44;101143.00;;;6.70
65569;BMP180;52211;50.154;8.682;2023-02-28T00:19:11;101142.00;;;6.70
65569;BMP180;52211;50.154;8.682;2023-02-28T00:21:39;101141.00;;;6.70
65569;BMP180;52211;50.154;8.682;2023-02-28T00:24:07;101138.00;;;6.70
65569;BMP180;52211;50.154;8.682;2023-02-28T00:26:38;101140.00;;;6.70
65569;BMP180;52211;50.154;8.682;2023-02-28T00:29:05;101149.00;;;6.60
65569;BMP180;52211;50.154;8.682;2023-02-28T00:31:35;101150.00;;;6.60
65569;BMP180;52211;50.154;8.682;2023-02-28T00:34:05;101140.00;;;6.60
65569;BMP180;52211;50.154;8.682;2023-02-28T00:36:35;101143.00;;;6.50
65569;BMP180;52211;50.154;8.682;2023-02-28T00:39:04;101151.00;;;6.50
65569;BMP180;52211;50.154;8.682;2023-02-28T00:41:33;101154.00;;;6.50
65569;BMP180;52211;50.154;8.682;2023-02-28T00:44:05;101145.00;;;6.50
65569;BMP180;52211;50.154;8.682;2023-02-28T00:46:34;101149.00;;;6.50
65569;BMP180;52211;50.154;8.682;2023-02-28T00:49:06;101140.00;;;6.40
65569;BMP180;52211;50.154;8.682;2023-02-28T00:51:35;101145.00;;;6.40
65569;BMP180;52211;50.154;8.682;2023-02-28T00:54:01;101146.00;;;6.40
65569;BMP180;52211;50.154;8.682;2023-02-28T00:56:31;101146.00;;;6.40
65569;BMP180;52211;50.154;8.682;2023-02-28T00:59:00;101145.00;;;6.30
65569;BMP180;52211;50.154;8.682;2023-02-28T01:01:29;101139.00;;;6.30
65569;BMP180;52211;50.154;8.682;2023-02-28T01:03:57;101139.00;;;6.30
65569;BMP180;52211;50.154;8.682;2023-02-28T01:06:25;101145.00;;;6.20
65569;BMP180;52211;50.154;8.682;2023-02-28T01:08:52;101142.00;;;6.20
65569;BMP180;52211;50.154;8.682;2023-02-28T01:11:24;101144.00;;;6.10
65569;BMP180;52211;50.154;8.682;2023-02-28T01:13:52;101147.00;;;6.10
65569;BMP180;52211;50.154;8.682;2023-02-28T01:16:19;101150.00;;;6.10
65569;BMP180;52211;50.154;8.682;2023-02-28T01:18:46;101136.00;;;6.10
65569;BMP180;52211;50.154;8.682;2023-02-28T01:21:19;101129.00;;;6.00
65569;BMP180;52211;50.154;8.682;2023-02-28T01:23:50;101132.00;;;6.00
65569;BMP180;52211;50.154;8.682;2023-02-28T01:26:24;101134.00;;;6.00
65569;BMP180;52211;50.154;8.682;2023-02-28T01:28:53;101136.00;;;6.00
65569;BMP180;52211;50.154;8.682;2023-02-28T01:31:22;101134.00;;;5.90
65569;BMP180;52211;50.154;8.682;2023-02-28T01:33:57;101137.00;;;5.90
65569;BMP180;52211;50.154;8.682;2023-02-28T01:36:28;101134.00;;;5.90
65569;BMP180;52211;50.154;8.682;2023-02-28T01:38:57;101123.00;;;5.90
65569;BMP180;52211;50.154;8.682;2023-02-28T01:41:31;101133.00;;;5.90
65569;BMP180;52211;50.154;8.682;2023-02-28T01:47:07;101128.00;;;5.80
65569;BMP180;52211;50.154;8.682;2023-02-28T01:49:34;101123.00;;;5.80
65569;BMP180;52211;50.154;8.682;2023-02-28T01:52:03;101126.00;;;5.80
65569;BMP180;52211;50.154;8.682;2023-02-28T01:54:33;101120.00;;;5.70
65569;BMP180;52211;50.154;8.682;2023-02-28T01:57:10;101122.00;;;5.70
65569;BMP180;52211;50.154;8.682;2023-02-28T02:00:01;101117.00;;;5.70
65569;BMP180;52211;50.154;8.682;2023-02-28T02:02:43;101126.00;;;5.70
65569;BMP180;52211;50.154;8.682;2023-02-28T02:07:48;101118.00;;;5.60
65569;BMP180;52211;50.154;8.682;2023-02-28T02:10:27;101111.00;;;5.60
65569;BMP180;52211;50.154;8.682;2023-02-28T02:13:18;101119.00;;;5.60
65569;BMP180;52211;50.154;8.682;2023-02-28T02:22:45;101104.00;;;5.50
65569;BMP180;52211;50.154;8.682;2023-02-28T02:25:32;101106.00;;;5.50
65569;BMP180;52211;50.154;8.682;2023-02-28T02:31:24;101112.00;;;5.40
65569;BMP180;52211;50.154;8.682;2023-02-28T02:34:36;101114.00;;;5.40
65569;BMP180;52211;50.154;8.682;2023-02-28T02:37:25;101110.00;;;5.40
65569;BMP180;52211;50.154;8.682;2023-02-28T02:45:35;101104.00;;;5.40
65569;BMP180;52211;50.154;8.682;2023-02-28T02:48:11;101106.00;;;5.30
65569;BMP180;52211;50.154;8.682;2023-02-28T02:50:55;101109.00;;;5.30
65569;BMP180;52211;50.154;8.682;2023-02-28T02:53:37;101103.00;;;5.30
65569;BMP180;52211;50.154;8.682;2023-02-28T02:56:12;101107.00;;;5.30
65569;BMP180;52211;50.154;8.682;2023-02-28T02:58:47;101114.00;;;5.30
65569;BMP180;52211;50.154;8.682;2023-02-28T03:01:23;101107.00;;;5.30
65569;BMP180;52211;50.154;8.682;2023-02-28T03:04:03;101114.00;;;5.30
65569;BMP180;52211;50.154;8.682;2023-02-28T03:06:31;101114.00;;;5.30
65569;BMP180;52211;50.154;8.682;2023-02-28T03:08:59;101113.00;;;5.20
65569;BMP180;52211;50.154;8.682;2023-02-28T03:11:30;101108.00;;;5.20
65569;BMP180;52211;50.154;8.682;2023-02-28T03:16:53;101101.00;;;5.20
65569;BMP180;52211;50.154;8.682;2023-02-28T03:22:57;101108.00;;;5.10
65569;BMP180;52211;50.154;8.682;2023-02-28T03:25:36;101114.00;;;5.10
65569;BMP180;52211;50.154;8.682;2023-02-28T03:34:16;101114.00;;;5.00
65569;BMP180;52211;50.154;8.682;2023-02-28T03:36:51;101107.00;;;5.00
65569;BMP180;52211;50.154;8.682;2023-02-28T03:39:35;101112.00;;;5.00
65569;BMP180;52211;50.154;8.682;2023-02-28T03:42:20;101110.00;;;5.00
65569;BMP180;52211;50.154;8.682;2023-02-28T03:45:00;101108.00;;;5.00
65569;BMP180;52211;50.154;8.682;2023-02-28T03:47:58;101103.00;;;4.90
65569;BMP180;52211;50.154;8.682;2023-02-28T03:50:39;101102.00;;;4.90
65569;BMP180;52211;50.154;8.682;2023-02-28T03:53:19;101109.00;;;4.90
65569;BMP180;52211;50.154;8.682;2023-02-28T03:55:55;101110.00;;;4.80
65569;BMP180;52211;50.154;8.682;2023-02-28T03:58:46;101103.00;;;4.80
65569;BMP180;52211;50.154;8.682;2023-02-28T04:01:36;101110.00;;;4.80
65569;BMP180;52211;50.154;8.682;2023-02-28T04:04:09;101113.00;;;4.80
65569;BMP180;52211;50.154;8.682;2023-02-28T04:06:39;101117.00;;;4.80
65569;BMP180;52211;50.154;8.682;2023-02-28T04:09:11;101117.00;;;4.80
65569;BMP180;52211;50.154;8.682;2023-02-28T04:11:52;101112.00;;;4.80
65569;BMP180;52211;50.154;8.682;2023-02-28T04:14:22;101116.00;;;4.70
65569;BMP180;52211;50.154;8.682;2023-02-28T04:16:49;101120.00;;;4.70
65569;BMP180;52211;50.154;8.682;2023-02-28T04:19:20;101110.00;;;4.70
65569;BMP180;52211;50.154;8.682;2023-02-28T04:21:53;101118.00;;;4.70
65569;BMP180;52211;50.154;8.682;2023-02-28T04:24:24;101115.00;;;4.70
65569;BMP180;52211;50.154;8.682;2023-02-28T04:26:58;101110.00;;;4.70
65569;BMP180;52211;50.154;8.682;2023-02-28T04:29:30;101115.00;;;4.70
65569;BMP180;52211;50.154;8.682;2023-02-28T04:32:02;101113.00;;;4.70
65569;BMP180;52211;50.154;8.682;2023-02-28T04:34:34;101113.00;;;4.70
65569;BMP180;52211;50.154;8.682;2023-02-28T04:37:04;101118.00;;;4.70
65569;BMP180;52211;50.154;8.682;2023-02-28T04:39:41;101113.00;;;4.70
65569;BMP180;52211;50.154;8.682;2023-02-28T04:42:11;101119.00;;;4.70
65569;BMP180;52211;50.154;8.682;2023-02-28T04:44:41;101118.00;;;4.70
65569;BMP180;52211;50.154;8.682;2023-02-28T04:47:10;101117.00;;;4.70
65569;BMP180;52211;50.154;8.682;2023-02-28T04:49:39;101119.00;;;4.70
65569;BMP180;52211;50.154;8.682;2023-02-28T04:52:10;101117.00;;;4.80
65569;BMP180;52211;50.154;8.682;2023-02-28T04:54:39;101117.00;;;4.80
65569;BMP180;52211;50.154;8.682;2023-02-28T04:57:06;101110.00;;;4.80
65569;BMP180;52211;50.154;8.682;2023-02-28T04:59:34;101118.00;;;4.80
65569;BMP180;52211;50.154;8.682;2023-02-28T05:02:01;101111.00;;;4.90
65569;BMP180;52211;50.154;8.682;2023-02-28T05:04:38;101119.00;;;4.90
65569;BMP180;52211;50.154;8.682;2023-02-28T05:07:05;101114.00;;;4.90
65569;BMP180;52211;50.154;8.682;2023-02-28T05:09:32;101115.00;;;5.00
65569;BMP180;52211;50.154;8.682;2023-02-28T05:12:01;101116.00;;;5.00
65569;BMP180;52211;50.154;8.682;2023-02-28T05:14:31;101115.00;;;5.00
65569;BMP180;52211;50.154;8.682;2023-02-28T05:17:00;101114.00;;;5.00
65569;BMP180;52211;50.154;8.682;2023-02-28T05:19:31;101114.00;;;5.10
65569;BMP180;52211;50.154;8.682;2023-02-28T05:22:01;101123.00;;;5.10
65569;BMP180;52211;50.154;8.682;2023-02-28T05:24:31;101122.00;;;5.10
65569;BMP180;52211;50.154;8.682;2023-02-28T05:26:58;101124.00;;;5.10
65569;BMP180;52211;50.154;8.682;2023-02-28T05:29:27;101125.00;;;5.10
65569;BMP180;52211;50.154;8.682;2023-02-28T05:31:54;101126.00;;;5.10
65569;BMP180;52211;50.154;8.682;2023-02-28T05:34:23;101125.00;;;5.10
65569;BMP180;52211;50.154;8.682;2023-02-28T05:36:50;101124.00;;;5.20
65569;BMP180;52211;50.154;8.682;2023-02-28T05:39:17;101127.00;;;5.10
65569;BMP180;52211;50.154;8.682;2023-02-28T05:41:48;101125.00;;;5.10
65569;BMP180;52211;50.154;8.682;2023-02-28T05:44:17;101129.00;;;5.10
65569;BMP180;52211;50.154;8.682;2023-02-28T05:46:46;101138.00;;;5.10
65569;BMP180;52211;50.154;8.682;2023-02-28T05:49:16;101133.00;;;5.10
65569;BMP180;52211;50.154;8.682;2023-02-28T05:51:42;101140.00;;;5.10
65569;BMP180;52211;50.154;8.682;2023-02-28T05:54:14;101138.00;;;5.10
65569;BMP180;52211;50.154;8.682;2023-02-28T05:56:44;101134.00;;;5.10
65569;BMP180;52211;50.154;8.682;2023-02-28T05:59:16;101134.00;;;5.10
65569;BMP180;52211;50.154;8.682;2023-02-28T06:01:45;101135.00;;;5.10
65569;BMP180;52211;50.154;8.682;2023-02-28T06:04:18;101144.00;;;5.10
65569;BMP180;52211;50.154;8.682;2023-02-28T06:06:58;101137.00;;;5.10
65569;BMP180;52211;50.154;8.682;2023-02-28T06:09:25;101138.00;;;5.10
65569;BMP180;52211;50.154;8.682;2023-02-28T06:11:51;101139.00;;;5.10
65569;BMP180;52211;50.154;8.682;2023-02-28T06:14:28;101143.00;;;5.10
65569;BMP180;52211;50.154;8.682;2023-02-28T06:16:54;101149.00;;;5.10
65569;BMP180;52211;50.154;8.682;2023-02-28T06:19:25;101146.00;;;5.20
65569;BMP180;52211;50.154;8.682;2023-02-28T06:21:59;101147.00;;;5.10
65569;BMP180;52211;50.154;8.682;2023-02-28T06:24:33;101153.00;;;5.10
65569;BMP180;52211;50.154;8.682;2023-02-28T06:27:04;101145.00;;;5.10
65569;BMP180;52211;50.154;8.682;2023-02-28T06:29:35;101149.00;;;5.10
65569;BMP180;52211;50.154;8.682;2023-02-28T06:32:05;101154.00;;;5.10
65569;BMP180;52211;50.154;8.682;2023-02-28T06:34:36;101162.00;;;5.10
65569;BMP180;52211;50.154;8.682;2023-02-28T06:37:03;101165.00;;;5.10
65569;BMP180;52211;50.154;8.682;2023-02-28T06:39:37;101162.00;;;5.10
65569;BMP180;52211;50.154;8.682;2023-02-28T06:42:04;101169.00;;;5.10
65569;BMP180;52211;50.154;8.682;2023-02-28T06:44:31;101170.00;;;5.10
65569;BMP180;52211;50.154;8.682;2023-02-28T06:47:04;101172.00;;;5.10
65569;BMP180;52211;50.154;8.682;2023-02-28T06:49:37;101173.00;;;5.00
65569;BMP180;52211;50.154;8.682;2023-02-28T06:52:08;101177.00;;;5.00
65569;BMP180;52211;50.154;8.682;2023-02-28T06:54:37;101171.00;;;5.00
65569;BMP180;52211;50.154;8.682;2023-02-28T06:57:13;101171.00;;;5.00
65569;BMP180;52211;50.154;8.682;2023-02-28T06:59:40;101170.00;;;5.00
65569;BMP180;52211;50.154;8.682;2023-02-28T07:02:11;101180.00;;;5.00
65569;BMP180;52211;50.154;8.682;2023-02-28T07:04:38;101178.00;;;5.00
65569;BMP180;52211;50.154;8.682;2023-02-28T07:07:09;101183.00;;;5.00
65569;BMP180;52211;50.154;8.682;2023-02-28T07:09:38;101174.00;;;5.00
65569;BMP180;52211;50.154;8.682;2023-02-28T07:12:09;101181.00;;;5.10
65569;BMP180;52211;50.154;8.682;2023-02-28T07:14:41;101185.00;;;5.10
65569;BMP180;52211;50.154;8.682;2023-02-28T07:17:11;101186.00;;;5.10
65569;BMP180;52211;50.154;8.682;2023-02-28T07:19:39;101183.00;;;5.10
65569;BMP180;52211;50.154;8.682;2023-02-28T07:22:08;101189.00;;;5.10
65569;BMP180;52211;50.154;8.682;2023-02-28T07:24:37;101190.00;;;5.10
65569;BMP180;52211;50.154;8.682;2023-02-28T07:27:11;101186.00;;;5.20
65569;BMP180;52211;50.154;8.682;2023-02-28T07:29:38;101180.00;;;5.20
65569;BMP180;52211;50.154;8.682;2023-02-28T07:32:08;101186.00;;;5.20
65569;BMP180;52211;50.154;8.682;2023-02-28T07:34:34;101186.00;;;5.20
65569;BMP180;52211;50.154;8.682;2023-02-28T07:37:06;101184.00;;;5.20
65569;BMP180;52211;50.154;8.682;2023-02-28T07:39:32;101190.00;;;5.30
65569;BMP180;52211;50.154;8.682;2023-02-28T07:41:59;101186.00;;;5.30
65569;BMP180;52211;50.154;8.682;2023-02-28T07:44:28;101183.00;;;5.30
65569;BMP180;52211;50.154;8.682;2023-02-28T07:46:55;101179.00;;;5.30
65569;BMP180;52211;50.154;8.682;2023-02-28T07:49:22;101184.00;;;5.40
65569;BMP180;52211;50.154;8.682;2023-02-28T07:51:49;101183.00;;;5.40
65569;BMP180;52211;50.154;8.682;2023-02-28T07:54:18;101187.00;;;5.40
65569;BMP180;52211;50.154;8.682;2023-02-28T07:56:45;101190.00;;;5.50
65569;BMP180;52211;50.154;8.682;2023-02-28T07:59:17;101193.00;;;5.50
65569;BMP180;52211;50.154;8.682;2023-02-28T08:01:46;101195.00;;;5.60
65569;BMP180;52211;50.154;8.682;2023-02-28T08:04:13;101192.00;;;5.60
65569;BMP180;52211;50.154;8.682;2023-02-28T08:06:40;101190.00;;;5.70
65569;BMP180;52211;50.154;8.682;2023-02-28T08:09:07;101197.00;;;5.70
65569;BMP180;52211;50.154;8.682;2023-02-28T08:11:36;101189.00;;;5.80
65569;BMP180;52211;50.154;8.682;2023-02-28T08:14:03;101193.00;;;5.80
65569;BMP180;52211;50.154;8.682;2023-02-28T08:16:30;101194.00;;;5.90
65569;BMP180;52211;50.154;8.682;2023-02-28T08:18:59;101196.00;;;5.90
65569;BMP180;52211;50.154;8.682;2023-02-28T08:21:29;101186.00;;;5.90
65569;BMP180;52211;50.154;8.682;2023-02-28T08:23:56;101192.00;;;6.00
65569;BMP180;52211;50.154;8.682;2023-02-28T08:26:26;101188.00;;;6.00
65569;BMP180;52211;50.154;8.682;2023-02-28T08:28:55;101190.00;;;6.10
65569;BMP180;52211;50.154;8.682;2023-02-28T08:31:26;101195.00;;;6.20
65569;BMP180;52211;50.154;8.682;2023-02-28T08:33:54;101195.00;;;6.20
65569;BMP180;52211;50.154;8.682;2023-02-28T08:36:26;101197.00;;;6.20
65569;BMP180;52211;50.154;8.682;2023-02-28T08:38:56;101186.00;;;6.30
65569;BMP180;52211;50.154;8.682;2023-02-28T08:41:25;101184.00;;;6.40
65569;BMP180;52211;50.154;8.682;2023-02-28T08:43:57;101192.00;;;6.40
65569;BMP180;52211;50.154;8.682;2023-02-28T08:46:25;101196.00;;;6.50
65569;BMP180;52211;50.154;8.682;2023-02-28T08:48:54;101203.00;;;6.60
65569;BMP180;52211;50.154;8.682;2023-02-28T08:51:22;101194.00;;;6.60
65569;BMP180;52211;50.154;8.682;2023-02-28T08:53:58;101192.00;;;6.60
65569;BMP180;52211;50.154;8.682;2023-02-28T08:56:29;101188.00;;;6.70
65569;BMP180;52211;50.154;8.682;2023-02-28T08:58:57;101192.00;;;6.70
65569;BMP180;52211;50.154;8.682;2023-02-28T09:01:29;101196.00;;;6.80
65569;BMP180;52211;50.154;8.682;2023-02-28T09:04:01;101193.00;;;6.80
65569;BMP180;52211;50.154;8.682;2023-02-28T09:06:34;101201.00;;;6.90
65569;BMP180;52211;50.154;8.682;2023-02-28T09:09:01;101195.00;;;6.90
65569;BMP180;52211;50.154;8.682;2023-02-28T09:11:33;101201.00;;;6.90
65569;BMP180;52211;50.154;8.682;2023-02-28T09:14:03;101192.00;;;7.00
65569;BMP180;52211;50.154;8.682;2023-02-28T09:16:32;101186.00;;;7.00
65569;BMP180;52211;50.154;8.682;2023-02-28T09:19:02;101203.00;;;7.10
65569;BMP180;52211;50.154;8.682;2023-02-28T09:21:31;101191.00;;;7.10
65569;BMP180;52211;50.154;8.682;2023-02-28T09:23:58;101181.00;;;7.10
65569;BMP180;52211;50.154;8.682;2023-02-28T09:26:27;101185.00;;;7.20
65569;BMP180;52211;50.154;8.682;2023-02-28T09:29:08;101190.00;;;7.20
65569;BMP180;52211;50.154;8.682;2023-02-28T09:31:35;101189.00;;;7.30
65569;BMP180;52211;50.154;8.682;2023-02-28T09:34:07;101186.00;;;7.30
65569;BMP180;52211;50.154;8.682;2023-02-28T09:36:38;101178.00;;;7.30
65569;BMP180;52211;50.154;8.682;2023-02-28T09:39:12;101184.00;;;7.40
65569;BMP180;52211;50.154;8.682;2023-02-28T09:41:52;101182.00;;;7.50
65569;BMP180;52211;50.154;8.682;2023-02-28T09:44:40;101183.00;;;7.50
65569;BMP180;52211;50.154;8.682;2023-02-28T09:47:34;101185.00;;;7.50
65569;BMP180;52211;50.154;8.682;2023-02-28T09:52:51;101186.00;;;7.70
65569;BMP180;52211;50.154;8.682;2023-02-28T09:55:42;101184.00;;;7.70
65569;BMP180;52211;50.154;8.682;2023-02-28T10:01:21;101185.00;;;7.80
65569;BMP180;52211;50.154;8.682;2023-02-28T10:04:00;101181.00;;;7.80
65569;BMP180;52211;50.154;8.682;2023-02-28T10:06:51;101187.00;;;7.90
65569;BMP180;52211;50.154;8.682;2023-02-28T10:09:34;101181.00;;;8.00
65569;BMP180;52211;50.154;8.682;2023-02-28T10:12:05;101180.00;;;8.10
65569;BMP180;52211;50.154;8.682;2023-02-28T10:14:35;101184.00;;;8.20
65569;BMP180;52211;50.154;8.682;2023-02-28T10:17:15;101192.00;;;8.30
65569;BMP180;52211;50.154;8.682;2023-02-28T10:22:56;101195.00;;;8.90
65569;BMP180;52211;50.154;8.682;2023-02-28T10:25:27;101174.00;;;9.40
65569;BMP180;52211;50.154;8.682;2023-02-28T10:28:15;101183.00;;;9.90
65569;BMP180;52211;50.154;8.682;2023-02-28T10:30:53;101175.00;;;10.40
65569;BMP180;52211;50.154;8.682;2023-02-28T10:33:34;101185.00;;;10.80
65569;BMP180;52211;50.154;8.682;2023-02-28T10:36:04;101180.00;;;11.30
65569;BMP180;52211;50.154;8.682;2023-02-28T10:38:36;101183.00;;;11.70
65569;BMP180;52211;50.154;8.682;2023-02-28T10:41:39;101177.00;;;12.10
65569;BMP180;52211;50.154;8.682;2023-02-28T10:44:22;101162.00;;;12.70
65569;BMP180;52211;50.154;8.682;2023-02-28T10:46:53;101164.00;;;13.10
65569;BMP180;52211;50.154;8.682;2023-02-28T10:49:26;101176.00;;;13.30
65569;BMP180;52211;50.154;8.682;2023-02-28T10:51:59;101166.00;;;13.50
65569;BMP180;52211;50.154;8.682;2023-02-28T10:54:39;101175.00;;;13.70
65569;BMP180;52211;50.154;8.682;2023-02-28T10:57:22;101162.00;;;13.90
65569;BMP180;52211;50.154;8.682;2023-02-28T11:02:48;101167.00;;;14.20
65569;BMP180;52211;50.154;8.682;2023-02-28T11:05:34;101165.00;;;14.30
65569;BMP180;52211;50.154;8.682;2023-02-28T11:08:15;101160.00;;;14.80
65569;BMP180;52211;50.154;8.682;2023-02-28T11:10:56;101164.00;;;15.30
65569;BMP180;52211;50.154;8.682;2023-02-28T11:13:47;101160.00;;;15.80
65569;BMP180;52211;50.154;8.682;2023-02-28T11:16:24;101162.00;;;16.20
65569;BMP180;52211;50.154;8.682;2023-02-28T11:19:06;101157.00;;;16.40
65569;BMP180;52211;50.154;8.682;2023-02-28T11:21:59;101155.00;;;16.60
65569;BMP180;52211;50.154;8.682;2023-02-28T11:24:47;101150.00;;;16.70
65569;BMP180;52211;50.154;8.682;2023-02-28T11:27:49;101157.00;;;16.80
65569;BMP180;52211;50.154;8.682;2023-02-28T11:30:38;101149.00;;;16.80
65569;BMP180;52211;50.154;8.682;2023-02-28T11:39:07;101153.00;;;17.00
65569;BMP180;52211;50.154;8.682;2023-02-28T11:41:58;101147.00;;;17.20
65569;BMP180;52211;50.154;8.682;2023-02-28T11:47:34;101132.00;;;17.60
65569;BMP180;52211;50.154;8.682;2023-02-28T11:50:23;101134.00;;;17.80
65569;BMP180;52211;50.154;8.682;2023-02-28T11:59:50;101152.00;;;18.00
65569;BMP180;52211;50.154;8.682;2023-02-28T12:05:52;101143.00;;;18.20
65569;BMP180;52211;50.154;8.682;2023-02-28T12:12:10;101149.00;;;18.30
65569;BMP180;52211;50.154;8.682;2023-02-28T12:15:20;101135.00;;;18.20
65569;BMP180;52211;50.154;8.682;2023-02-28T12:28:53;101131.00;;;18.50
65569;BMP180;52211;50.154;8.682;2023-02-28T12:31:26;101141.00;;;18.60
65569;BMP180;52211;50.154;8.682;2023-02-28T12:34:13;101134.00;;;18.70
65569;BMP180;52211;50.154;8.682;2023-02-28T12:36:46;101126.00;;;18.80
65569;BMP180;52211;50.154;8.682;2023-02-28T12:39:32;101139.00;;;18.80
65569;BMP180;52211;50.154;8.682;2023-02-28T12:42:32;101126.00;;;18.80
65569;BMP180;52211;50.154;8.682;2023-02-28T12:45:54;101137.00;;;18.70
65569;BMP180;52211;50.154;8.682;2023-02-28T12:51:07;101118.00;;;18.80
65569;BMP180;52211;50.154;8.682;2023-02-28T13:00:11;101123.00;;;19.10
65569;BMP180;52211;50.154;8.682;2023-02-28T13:03:33;101120.00;;;19.30
65569;BMP180;52211;50.154;8.682;2023-02-28T13:06:33;101110.00;;;19.40
65569;BMP180;52211;50.154;8.682;2023-02-28T13:09:17;101111.00;;;19.40
65569;BMP180;52211;50.154;8.682;2023-02-28T13:11:53;101115.00;;;19.40
65569;BMP180;52211;50.154;8.682;2023-02-28T13:17:12;101114.00;;;19.30
65569;BMP180;52211;50.154;8.682;2023-02-28T13:20:34;101115.00;;;19.20
65569;BMP180;52211;50.154;8.682;2023-02-28T13:22:41;101113.00;;;19.30
65569;BMP180;52211;50.154;8.682;2023-02-28T13:28:10;101110.00;;;19.30
65569;BMP180;52211;50.154;8.682;2023-02-28T13:36:35;101111.00;;;19.60
65569;BMP180;52211;50.154;8.682;2023-02-28T13:48:02;101108.00;;;20.40
65569;BMP180;52211;50.154;8.682;2023-02-28T13:50:38;101110.00;;;20.60
65569;BMP180;52211;50.154;8.682;2023-02-28T13:56:23;101116.00;;;20.90
65569;BMP180;52211;50.154;8.682;2023-02-28T13:59:20;101108.00;;;21.10
65569;BMP180;52211;50.154;8.682;2023-02-28T14:07:26;101101.00;;;21.10
65569;BMP180;52211;50.154;8.682;2023-02-28T14:10:04;101105.00;;;20.90
65569;BMP180;52211;50.154;8.682;2023-02-28T14:13:02;101106.00;;;20.80
65569;BMP180;52211;50.154;8.682;2023-02-28T14:18:05;101088.00;;;21.00
65569;BMP180;52211;50.154;8.682;2023-02-28T14:20:42;101102.00;;;21.00
65569;BMP180;52211;50.154;8.682;2023-02-28T14:26:32;101093.00;;;20.90
65569;BMP180;52211;50.154;8.682;2023-02-28T14:31:37;101091.00;;;20.70
65569;BMP180;52211;50.154;8.682;2023-02-28T14:34:27;101087.00;;;20.50
65569;BMP180;52211;50.154;8.682;2023-02-28T14:37:09;101087.00;;;20.20
65569;BMP180;52211;50.154;8.682;2023-02-28T14:39:44;101079.00;;;19.90
65569;BMP180;52211;50.154;8.682;2023-02-28T14:42:37;101080.00;;;19.50
65569;BMP180;52211;50.154;8.682;2023-02-28T14:45:30;101078.00;;;19.30
65569;BMP180;52211;50.154;8.682;2023-02-28T14:47:58;101081.00;;;19.10
65569;BMP180;52211;50.154;8.682;2023-02-28T14:50:35;101083.00;;;19.00
65569;BMP180;52211;50.154;8.682;2023-02-28T14:53:03;101080.00;;;18.90
65569;BMP180;52211;50.154;8.682;2023-02-28T14:55:34;101088.00;;;18.70
65569;BMP180;52211;50.154;8.682;2023-02-28T14:58:05;101076.00;;;18.40
65569;BMP180;52211;50.154;8.682;2023-02-28T15:00:46;101074.00;;;18.10
65569;BMP180;52211;50.154;8.682;2023-02-28T15:06:01;101082.00;;;17.30
65569;BMP180;52211;50.154;8.682;2023-02-28T15:08:32;101070.00;;;17.00
65569;BMP180;52211;50.154;8.682;2023-02-28T15:11:08;101069.00;;;16.80
65569;BMP180;52211;50.154;8.682;2023-02-28T15:13:46;101068.00;;;16.50
65569;BMP180;52211;50.154;8.682;2023-02-28T15:16:22;101067.00;;;16.30
65569;BMP180;52211;50.154;8.682;2023-02-28T15:21:33;101076.00;;;15.90
65569;BMP180;52211;50.154;8.682;2023-02-28T15:27:22;101071.00;;;15.50
65569;BMP180;52211;50.154;8.682;2023-02-28T15:30:20;101075.00;;;15.30
65569;BMP180;52211;50.154;8.682;2023-02-28T15:35:40;101070.00;;;15.20
65569;BMP180;52211;50.154;8.682;2023-02-28T15:38:26;101088.00;;;15.00
65569;BMP180;52211;50.154;8.682;2023-02-28T15:40:58;101069.00;;;14.90
65569;BMP180;52211;50.154;8.682;2023-02-28T15:43:36;101075.00;;;14.70
65569;BMP180;52211;50.154;8.682;2023-02-28T15:46:10;101076.00;;;14.50
65569;BMP180;52211;50.154;8.682;2023-02-28T15:48:55;101065.00;;;14.30
65569;BMP180;52211;50.154;8.682;2023-02-28T15:54:06;101077.00;;;14.00
65569;BMP180;52211;50.154;8.682;2023-02-28T15:56:43;101082.00;;;13.90
65569;BMP180;52211;50.154;8.682;2023-02-28T15:59:36;101072.00;;;13.80
65569;BMP180;52211;50.154;8.682;2023-02-28T16:04:37;101071.00;;;13.60
65569;BMP180;52211;50.154;8.682;2023-02-28T16:07:25;101070.00;;;13.50
65569;BMP180;52211;50.154;8.682;2023-02-28T16:09:57;101079.00;;;13.40
65569;BMP180;52211;50.154;8.682;2023-02-28T16:12:33;101070.00;;;13.30
65569;BMP180;52211;50.154;8.682;2023-02-28T16:15:20;101065.00;;;13.10
65569;BMP180;52211;50.154;8.682;2023-02-28T16:17:47;101069.00;;;13.00
65569;BMP180;52211;50.154;8.682;2023-02-28T16:20:27;101065.00;;;12.90
65569;BMP180;52211;50.154;8.682;2023-02-28T16:22:57;101062.00;;;12.80
65569;BMP180;52211;50.154;8.682;2023-02-28T16:25:40;101068.00;;;12.70
65569;BMP180;52211;50.154;8.682;2023-02-28T16:28:34;101079.00;;;12.60
65569;BMP180;52211;50.154;8.682;2023-02-28T16:31:04;101079.00;;;12.50
65569;BMP180;52211;50.154;8.682;2023-02-28T16:33:37;101080.00;;;12.40
65569;BMP180;52211;50.154;8.682;2023-02-28T16:36:11;101068.00;;;12.40
65569;BMP180;52211;50.154;8.682;2023-02-28T16:38:41;101080.00;;;12.30
65569;BMP180;52211;50.154;8.682;2023-02-28T16:41:17;101087.00;;;12.20
65569;BMP180;52211;50.154;8.682;2023-02-28T16:43:52;101085.00;;;12.10
65569;BMP180;52211;50.154;8.682;2023-02-28T16:46:25;101093.00;;;12.00
65569;BMP180;52211;50.154;8.682;2023-02-28T16:48:56;101092.00;;;11.90
65569;BMP180;52211;50.154;8.682;2023-02-28T16:51:25;101101.00;;;11.90
65569;BMP180;52211;50.154;8.682;2023-02-28T16:53:55;101100.00;;;11.80
65569;BMP180;52211;50.154;8.682;2023-02-28T16:56:25;101108.00;;;11.70
65569;BMP180;52211;50.154;8.682;2023-02-28T16:58:59;101109.00;;;11.60
65569;BMP180;52211;50.154;8.682;2023-02-28T17:01:27;101118.00;;;11.60
65569;BMP180;52211;50.154;8.682;2023-02-28T17:03:56;101109.00;;;11.50
65569;BMP180;52211;50.154;8.682;2023-02-28T17:06:28;101108.00;;;11.50
65569;BMP180;52211;50.154;8.682;2023-02-28T17:08:59;101107.00;;;11.40